»·PEaware :: SAS4920 KSAN-KSFO

SAS4920 :: KSAN-KSFO

FLIGHT INFORMATION

Flight Status: Arrived
Operator:
SAS
More flights by this operator :: More flights under this callsign
Pilot: Vegard H. (1620)
Aircraft: AIRBUS A320
(A320)
More flights by this aircraft type
Origin: KSAN San Diego Intl-Lindbergh
United States
Destination: KSFO San Francisco Intl
United States
More flights between these airports :: More routes between these airports
Route: +PEBLE4 SXC VTU RZS J501 BSR BSR2
File this flight plan on PilotEdge
Remarks:
Altitude:
(Current/Filed)
28,000ft
Speed:
(Current/Filed)
420kts
Departed: 09-Sep-14 12:19 PM
Arrived: 09-Sep-14 01:22 PM
Distance/Time
Traveled:
388nm/1:03
Distance/Time
To Go:
Arrived

Flight Plot

Page will automatically refresh every two minutes.


Map Options




Map Legend


Flown Route
Filed Route
Departure Airport
Arrival Airport
Navaid (VOR, NDB)
Fix

Horizontal Profiles

Position Reports

Time Latitude Longitude Heading Altitude Ground
Speed
09-Sep-14 11:41 32.732849 -117.195574 265 21ft 0kts
09-Sep-14 11:42 32.732849 -117.195574 265 21ft 0kts
09-Sep-14 11:43 32.732849 -117.195574 265 21ft 0kts
09-Sep-14 11:44 32.732849 -117.195574 265 21ft 0kts
09-Sep-14 11:45 32.732849 -117.195574 265 21ft 0kts
09-Sep-14 11:46 32.732849 -117.195574 265 21ft 0kts
09-Sep-14 11:47 32.732849 -117.195574 265 21ft 0kts
09-Sep-14 11:48 32.732849 -117.195574 265 21ft 0kts
09-Sep-14 11:49 32.732849 -117.195574 265 21ft 0kts
09-Sep-14 11:50 32.732849 -117.195574 265 21ft 0kts
09-Sep-14 11:51 32.732849 -117.195574 265 21ft 0kts
09-Sep-14 11:52 32.732849 -117.195574 265 21ft 0kts
09-Sep-14 11:53 32.732849 -117.195574 265 21ft 0kts
09-Sep-14 11:54 32.732849 -117.195574 265 21ft 0kts
09-Sep-14 11:55 32.732849 -117.195574 265 21ft 0kts
09-Sep-14 11:56 32.732849 -117.195574 265 21ft 0kts
09-Sep-14 11:57 32.732849 -117.195574 265 21ft 0kts
09-Sep-14 11:58 32.732849 -117.195574 265 21ft 0kts
09-Sep-14 11:59 32.732849 -117.195574 265 21ft 0kts
09-Sep-14 12:00 32.732849 -117.195574 265 21ft 0kts
09-Sep-14 12:01 32.732849 -117.195574 265 21ft 0kts
09-Sep-14 12:02 32.732849 -117.195574 265 21ft 0kts
09-Sep-14 12:03 32.732849 -117.195574 265 21ft 0kts
09-Sep-14 12:04 32.732849 -117.195574 265 21ft 0kts
09-Sep-14 12:05 32.732849 -117.195574 265 21ft 0kts
09-Sep-14 12:06 32.732849 -117.195574 265 21ft 0kts
09-Sep-14 12:07 32.732850 -117.195556 265 21ft 0kts
09-Sep-14 12:08 32.732930 -117.194436 265 22ft 0kts
09-Sep-14 12:09 32.732930 -117.194436 265 22ft 0kts
09-Sep-14 12:10 32.732930 -117.194436 265 22ft 0kts
09-Sep-14 12:11 32.732930 -117.194436 265 22ft 0kts
09-Sep-14 12:12 32.732930 -117.194436 265 21ft 0kts
09-Sep-14 12:13 32.732893 -117.194605 219 22ft 1kts
09-Sep-14 12:14 32.732809 -117.190859 106 21ft 25kts
09-Sep-14 12:15 32.730537 -117.181247 104 18ft 26kts
09-Sep-14 12:16 32.729476 -117.176693 79 21ft 0kts
09-Sep-14 12:17 32.729476 -117.176693 79 21ft 0kts
09-Sep-14 12:18 32.731147 -117.179741 285 21ft 73kts
09-Sep-14 12:19 32.747282 -117.222959 304 2264ft 166kts
09-Sep-14 12:20 32.777001 -117.273417 301 3951ft 214kts
09-Sep-14 12:21 32.814768 -117.330268 309 4315ft 243kts
09-Sep-14 12:22 32.859135 -117.390933 309 7375ft 250kts
09-Sep-14 12:23 32.905400 -117.454381 309 10101ft 261kts
09-Sep-14 12:24 32.953597 -117.520603 308 12637ft 272kts
09-Sep-14 12:25 32.997486 -117.596590 296 14325ft 310kts
09-Sep-14 12:26 33.045665 -117.701037 297 14431ft 408kts
09-Sep-14 12:27 33.102925 -117.824965 297 16582ft 436kts
09-Sep-14 12:28 33.161871 -117.953010 298 18941ft 443kts
09-Sep-14 12:29 33.221522 -118.083065 299 20697ft 452kts
09-Sep-14 12:30 33.301446 -118.197007 320 22169ft 462kts
09-Sep-14 12:31 33.400045 -118.297904 318 23669ft 474kts
09-Sep-14 12:32 33.500039 -118.402671 318 25032ft 483kts
09-Sep-14 12:33 33.573247 -118.479546 318 26321ft 480kts
09-Sep-14 12:34 33.689407 -118.601940 318 28028ft 472kts
09-Sep-14 12:35 33.789338 -118.707234 317 28014ft 481kts
09-Sep-14 12:36 33.874206 -118.796130 317 28011ft 492kts
09-Sep-14 12:37 33.976707 -118.903733 317 28011ft 484kts
09-Sep-14 12:38 34.076824 -119.009181 317 28011ft 478kts
09-Sep-14 12:39 34.157417 -119.126977 303 28007ft 474kts
09-Sep-14 12:40 34.230156 -119.258255 302 28010ft 469kts
09-Sep-14 12:41 34.302250 -119.389752 302 28011ft 472kts
09-Sep-14 12:42 34.375721 -119.524351 302 28011ft 492kts
09-Sep-14 12:43 34.450910 -119.662545 302 28011ft 491kts
09-Sep-14 12:44 34.532049 -119.794121 315 28011ft 488kts
09-Sep-14 12:45 34.628420 -119.900746 317 28022ft 478kts
09-Sep-14 12:46 34.726381 -120.008063 318 28031ft 475kts
09-Sep-14 12:47 34.823728 -120.114954 317 28043ft 474kts
09-Sep-14 12:48 34.921339 -120.222113 317 28068ft 472kts
09-Sep-14 12:49 35.018102 -120.329131 317 28071ft 472kts
09-Sep-14 12:50 35.115286 -120.436996 317 28064ft 475kts
09-Sep-14 12:51 35.213582 -120.546440 317 28050ft 481kts
09-Sep-14 12:52 35.312257 -120.656703 317 28051ft 480kts
09-Sep-14 12:53 35.404734 -120.760381 317 28065ft 420kts
09-Sep-14 12:54 35.494815 -120.861704 317 28068ft 458kts
09-Sep-14 12:55 35.585519 -120.963985 317 25887ft 482kts
09-Sep-14 12:56 35.699112 -121.092577 317 21791ft 466kts
09-Sep-14 12:57 35.776147 -121.179595 317 20065ft 453kts
09-Sep-14 12:58 35.868600 -121.284908 317 20071ft 454kts
09-Sep-14 12:59 35.961320 -121.390938 317 20076ft 453kts
09-Sep-14 13:00 36.052985 -121.496119 317 20083ft 450kts
09-Sep-14 13:01 36.159699 -121.617853 318 20088ft 444kts
09-Sep-14 13:02 36.240935 -121.694532 325 20091ft 441kts
09-Sep-14 13:03 36.341487 -121.781322 325 20091ft 441kts
09-Sep-14 13:04 36.442230 -121.868642 325 20090ft 441kts
09-Sep-14 13:05 36.550215 -121.910657 349 19547ft 438kts
09-Sep-14 13:06 36.657911 -121.939815 347 18661ft 433kts
09-Sep-14 13:07 36.769466 -121.971055 350 17248ft 393kts
09-Sep-14 13:08 36.875710 -121.992561 350 14888ft 376kts
09-Sep-14 13:09 36.977259 -122.024842 347 11809ft 385kts
09-Sep-14 13:10 37.079645 -122.052316 348 10007ft 349kts
09-Sep-14 13:11 37.164542 -122.074674 349 10008ft 275kts
09-Sep-14 13:12 37.236756 -122.093724 349 9704ft 280kts
09-Sep-14 13:13 37.311055 -122.113160 348 8557ft 280kts
09-Sep-14 13:14 37.385119 -122.132695 348 7358ft 265kts
09-Sep-14 13:15 37.454139 -122.151006 347 6024ft 237kts
09-Sep-14 13:16 37.514297 -122.172874 342 5083ft 225kts
09-Sep-14 13:17 37.564052 -122.208578 288 3522ft 223kts
09-Sep-14 13:18 37.578223 -122.280928 300 1606ft 201kts
09-Sep-14 13:19 37.602377 -122.337049 298 432ft 155kts
09-Sep-14 13:20 37.618036 -122.373439 297 15ft 55kts
09-Sep-14 13:21 37.618928 -122.378243 265 28ft 0kts
09-Sep-14 13:22 37.619127 -122.380997 295 31ft 31kts
09-Sep-14 13:23 37.619678 -122.385171 102 31ft 11kts

Navigation Log

Ident Type
1. KSAN Airport
2. MELDY Fix
3. PEBLE Fix
4. SXC Navaid
5. VTU Navaid
6. RZS Navaid
7. PEGRS Fix
8. ZONAL Fix
9. BSR Navaid
10. CARME Fix
11. ANJEE Fix
12. SKUNK Fix
13. BOLDR Fix
14. MENLO Fix
15. KSFO Airport